Time;durP1;ratioP1;P1;durP2;ratioP2;P2;SDS_P1;SDS_P2;PMS_P1;PMS_P2;Temp;Humidity;BMP_temperature;BMP_pressure;BME280_temperature;BME280_humidity;BME280_pressure;Samples;Min_cycle;Max_cycle;Signal;HPM_P1;HPM_P2
2021/05/10 00:02:03;;;;;;;4.05;2.70;;;19.50;99.10;;;;;;5094297;28;20031;-83
2021/05/10 00:04:29;;;;;;;3.10;2.50;;;19.40;99.10;;;;;;5091599;28;20035;-84
2021/05/10 00:06:55;;;;;;;3.33;2.17;;;19.40;99.10;;;;;;5083418;27;20069;-83
2021/05/10 00:09:21;;;;;;;2.47;2.05;;;19.40;99.20;;;;;;5092865;28;20096;-83
2021/05/10 00:11:47;;;;;;;3.00;2.42;;;19.40;99.20;;;;;;5106983;28;20042;-83
2021/05/10 00:14:14;;;;;;;4.97;2.50;;;19.40;99.20;;;;;;5076690;27;20478;-83
2021/05/10 00:16:40;;;;;;;3.92;2.28;;;19.30;99.30;;;;;;5120554;27;20035;-83
2021/05/10 00:19:08;;;;;;;3.03;2.50;;;19.30;99.30;;;;;;5101766;27;20039;-83
2021/05/10 00:21:34;;;;;;;4.22;2.60;;;19.30;99.30;;;;;;5078346;28;20526;-82
2021/05/10 00:24:02;;;;;;;5.13;3.13;;;19.30;99.40;;;;;;5108600;28;20047;-84
2021/05/10 00:26:28;;;;;;;3.00;2.45;;;19.30;99.40;;;;;;5090287;28;20054;-83
2021/05/10 00:28:54;;;;;;;3.92;2.50;;;19.30;99.50;;;;;;5099970;27;20035;-83
2021/05/10 00:31:20;;;;;;;5.15;2.65;;;19.20;99.50;;;;;;5097072;28;20445;-82
2021/05/10 00:33:46;;;;;;;3.75;2.72;;;19.20;99.50;;;;;;5108983;28;20031;-84
2021/05/10 00:36:13;;;;;;;4.88;3.00;;;19.20;99.60;;;;;;5098270;28;20434;-82
2021/05/10 00:38:39;;;;;;;3.38;2.80;;;19.10;99.60;;;;;;5097938;27;20035;-83
2021/05/10 00:41:06;;;;;;;5.80;2.92;;;19.20;99.70;;;;;;5098972;28;20046;-84
2021/05/10 00:43:33;;;;;;;4.68;3.10;;;19.10;99.80;;;;;;5105352;27;20035;-82
2021/05/10 00:45:59;;;;;;;3.45;2.60;;;19.10;99.90;;;;;;5108403;27;20050;-84
2021/05/10 00:48:25;;;;;;;4.15;2.75;;;19.10;99.90;;;;;;5095939;28;20035;-83
2021/05/10 00:50:53;;;;;;;4.00;2.50;;;19.10;99.90;;;;;;5076117;28;20048;-83
2021/05/10 00:53:19;;;;;;;3.80;2.80;;;19.10;99.90;;;;;;5077726;28;20516;-83
2021/05/10 00:55:45;;;;;;;3.03;2.33;;;19.10;99.90;;;;;;5088760;28;20040;-83
2021/05/10 00:58:13;;;;;;;4.57;2.65;;;19.10;99.90;;;;;;5070740;28;20036;-84
2021/05/10 01:00:39;;;;;;;4.47;2.80;;;19.10;99.90;;;;;;5073764;28;20097;-83
2021/05/10 01:03:06;;;;;;;4.88;3.08;;;19.10;99.90;;;;;;5100398;28;20031;-83
2021/05/10 01:05:36;;;;;;;4.35;2.92;;;19.00;99.90;;;;;;5102481;28;20399;-84
2021/05/10 01:08:04;;;;;;;5.13;3.42;;;19.00;99.90;;;;;;5114500;28;20028;-84
2021/05/10 01:10:31;;;;;;;4.15;2.85;;;18.90;99.90;;;;;;5079647;28;20059;-82
2021/05/10 01:12:57;;;;;;;4.28;2.90;;;18.90;99.90;;;;;;5096275;28;20571;-82
2021/05/10 01:15:26;;;;;;;3.88;2.90;;;18.90;99.90;;;;;;5096334;28;20361;-82
2021/05/10 01:17:52;;;;;;;5.15;3.40;;;18.90;99.90;;;;;;5096014;28;20043;-83
2021/05/10 01:20:21;;;;;;;3.33;3.00;;;18.90;99.90;;;;;;5114550;28;20102;-85
2021/05/10 01:22:55;;;;;;;3.70;3.00;;;18.90;99.90;;;;;;5096131;28;20486;-83
2021/05/10 01:25:30;;;;;;;5.18;3.05;;;18.90;99.90;;;;;;5095800;28;20042;-83
2021/05/10 01:27:57;;;;;;;4.32;3.15;;;18.90;99.90;;;;;;5095217;28;20156;-84
2021/05/10 01:30:36;;;;;;;4.68;3.10;;;18.80;99.90;;;;;;5095937;28;20040;-83
2021/05/10 01:33:05;;;;;;;4.05;3.35;;;18.90;99.90;;;;;;5113838;28;20048;-84
2021/05/10 01:35:35;;;;;;;5.00;3.22;;;18.80;99.90;;;;;;5095978;28;20090;-83
2021/05/10 01:38:04;;;;;;;4.15;3.50;;;18.80;99.90;;;;;;5095152;28;20047;-84
2021/05/10 01:40:30;;;;;;;4.22;3.08;;;18.70;99.90;;;;;;5095706;28;20028;-84
2021/05/10 01:42:57;;;;;;;4.90;3.28;;;18.70;99.90;;;;;;5113858;28;20028;-84
2021/05/10 01:45:23;;;;;;;5.47;3.58;;;18.70;99.90;;;;;;5113945;28;20088;-84
2021/05/10 01:47:57;;;;;;;4.78;3.55;;;18.70;99.90;;;;;;5113986;28;20042;-84
2021/05/10 01:50:24;;;;;;;5.20;3.63;;;18.60;99.90;;;;;;5095314;28;20051;-84
2021/05/10 01:52:50;;;;;;;3.38;2.78;;;18.60;99.90;;;;;;5095689;28;20476;-84
2021/05/10 01:55:16;;;;;;;4.97;3.50;;;18.50;99.90;;;;;;5094631;28;20088;-84
2021/05/10 01:57:48;;;;;;;4.60;3.22;;;18.50;99.90;;;;;;5113319;28;20471;-84
2021/05/10 02:00:38;;;;;;;4.93;3.42;;;18.50;99.90;;;;;;5095692;28;20097;-84
2021/05/10 02:03:09;;;;;;;4.40;3.15;;;18.50;99.90;;;;;;5092493;28;20040;-83
2021/05/10 02:05:36;;;;;;;3.42;2.65;;;18.50;99.90;;;;;;5113893;28;20027;-83
2021/05/10 02:08:04;;;;;;;4.70;3.30;;;18.40;99.90;;;;;;5113337;28;20089;-83
2021/05/10 02:10:36;;;;;;;4.45;3.05;;;18.40;99.90;;;;;;5112095;28;20027;-84
2021/05/10 02:13:14;;;;;;;4.93;3.45;;;18.40;99.90;;;;;;5093554;28;20036;-83
2021/05/10 02:15:48;;;;;;;4.38;3.38;;;18.40;99.90;;;;;;5093523;28;20036;-84
2021/05/10 02:18:18;;;;;;;4.57;3.13;;;18.30;99.90;;;;;;5093859;28;20054;-83
2021/05/10 02:20:45;;;;;;;3.95;3.13;;;18.30;99.90;;;;;;5113387;28;20024;-83
2021/05/10 02:23:20;;;;;;;4.35;3.50;;;18.10;99.90;;;;;;5094792;28;20122;-83
2021/05/10 02:25:49;;;;;;;4.45;3.13;;;18.10;99.90;;;;;;5113696;28;20024;-84
2021/05/10 02:28:18;;;;;;;5.25;3.38;;;18.00;99.90;;;;;;5095028;28;20032;-83
2021/05/10 02:30:45;;;;;;;3.75;2.85;;;18.00;99.90;;;;;;5095099;28;20059;-84
2021/05/10 02:33:13;;;;;;;3.88;2.90;;;18.00;99.90;;;;;;5095312;28;20035;-83
2021/05/10 02:35:40;;;;;;;5.57;3.25;;;18.00;99.90;;;;;;5095199;28;20039;-83
2021/05/10 02:38:07;;;;;;;4.43;2.75;;;18.00;99.90;;;;;;5113217;28;20046;-83
2021/05/10 02:40:34;;;;;;;3.13;2.80;;;18.00;99.90;;;;;;5095160;28;20536;-83
2021/05/10 02:43:00;;;;;;;3.88;2.88;;;18.00;99.90;;;;;;5095139;28;20028;-83
2021/05/10 02:45:26;;;;;;;4.13;3.05;;;18.00;99.90;;;;;;5095264;28;20391;-83
2021/05/10 02:47:52;;;;;;;3.80;2.85;;;17.90;99.90;;;;;;5095041;28;20418;-82
2021/05/10 02:50:21;;;;;;;5.90;3.45;;;17.90;99.90;;;;;;5112886;28;20055;-83
2021/05/10 02:52:47;;;;;;;3.78;2.80;;;17.90;99.90;;;;;;5113160;28;20031;-83
2021/05/10 02:55:14;;;;;;;4.05;3.10;;;17.90;99.90;;;;;;5113605;28;20024;-83
2021/05/10 02:57:40;;;;;;;3.85;2.97;;;17.90;99.90;;;;;;5094728;28;20556;-83
2021/05/10 03:00:08;;;;;;;4.18;2.90;;;17.90;99.90;;;;;;5094952;28;20092;-83
2021/05/10 03:02:35;;;;;;;3.80;2.78;;;17.90;99.90;;;;;;5094817;28;20052;-83
2021/05/10 03:05:01;;;;;;;4.30;2.95;;;17.90;99.90;;;;;;5095070;28;20054;-83
2021/05/10 03:07:27;;;;;;;3.22;2.63;;;17.90;99.90;;;;;;5094931;28;20031;-83
2021/05/10 03:09:54;;;;;;;5.65;3.05;;;17.90;99.90;;;;;;5116113;28;20039;-83
2021/05/10 03:12:20;;;;;;;3.65;2.80;;;17.80;99.90;;;;;;5098524;28;20066;-84
2021/05/10 03:14:46;;;;;;;4.03;2.30;;;17.80;99.90;;;;;;5098657;28;20036;-83
2021/05/10 03:17:12;;;;;;;5.75;2.92;;;17.80;99.90;;;;;;5098454;28;20391;-83
2021/05/10 03:19:38;;;;;;;4.25;2.80;;;17.90;99.90;;;;;;5098431;28;20031;-84
2021/05/10 03:22:04;;;;;;;5.97;3.05;;;17.80;99.90;;;;;;5098313;28;20032;-84
2021/05/10 03:24:30;;;;;;;2.90;2.05;;;17.70;99.90;;;;;;5098799;28;20047;-84
2021/05/10 03:26:56;;;;;;;3.25;2.22;;;17.40;99.90;;;;;;5098135;28;20032;-83
2021/05/10 03:29:23;;;;;;;5.78;2.45;;;17.20;99.90;;;;;;5116297;28;20074;-85
2021/05/10 03:31:50;;;;;;;4.95;2.03;;;17.20;99.90;;;;;;5081519;28;20036;-85
2021/05/10 03:34:16;;;;;;;3.30;1.90;;;17.20;99.90;;;;;;5098461;28;20027;-85
2021/05/10 03:36:42;;;;;;;3.45;1.60;;;17.30;99.90;;;;;;5098217;28;20039;-84
2021/05/10 03:39:08;;;;;;;4.50;1.75;;;17.60;99.90;;;;;;5098427;28;20039;-86
2021/05/10 03:41:33;;;;;;;2.63;1.17;;;17.80;99.90;;;;;;5098217;28;20027;-88
2021/05/10 03:43:59;;;;;;;3.75;1.42;;;18.10;99.90;;;;;;5116521;28;20039;-86
2021/05/10 03:46:26;;;;;;;7.05;1.42;;;18.20;99.70;;;;;;5098346;28;20090;-85
2021/05/10 03:48:52;;;;;;;5.20;1.20;;;18.20;99.10;;;;;;5097709;28;20509;-85
2021/05/10 03:51:20;;;;;;;4.18;1.50;;;18.30;99.30;;;;;;5116543;28;20464;-85
2021/05/10 03:53:48;;;;;;;6.18;1.40;;;18.40;98.30;;;;;;5098312;28;20031;-85
2021/05/10 03:56:18;;;;;;;3.13;1.38;;;18.50;98.10;;;;;;5097643;28;20043;-87
2021/05/10 03:58:50;;;;;;;2.70;1.15;;;18.60;98.40;;;;;;5115325;28;20036;-87
2021/05/10 04:01:17;;;;;;;2.65;1.30;;;18.60;98.20;;;;;;5098184;28;20067;-88
2021/05/10 04:06:43;;;;;;;3.72;1.25;;;18.80;97.00;;;;;;5116068;28;20114;-84
2021/05/10 04:14:38;;;;;;;3.50;1.23;;;19.10;96.10;;;;;;5115963;28;20039;-83
2021/05/10 04:17:08;;;;;;;4.43;1.20;;;19.20;95.40;;;;;;5115482;28;20043;-84
2021/05/10 04:19:34;;;;;;;2.10;0.90;;;19.40;95.40;;;;;;5097448;28;20036;-85
2021/05/10 04:21:59;;;;;;;2.20;1.00;;;19.50;94.70;;;;;;5115875;28;20035;-84
2021/05/10 04:24:26;;;;;;;2.65;1.20;;;19.50;94.20;;;;;;5097703;28;20460;-84
2021/05/10 04:26:55;;;;;;;6.38;1.40;;;19.60;94.90;;;;;;5097467;28;20043;-84
2021/05/10 04:29:21;;;;;;;3.42;1.10;;;19.60;94.00;;;;;;5097004;28;20617;-85
2021/05/10 04:31:48;;;;;;;5.40;0.98;;;19.70;94.20;;;;;;5080396;28;20039;-85
2021/05/10 04:34:15;;;;;;;3.80;1.10;;;19.70;93.70;;;;;;5089764;28;20028;-85
2021/05/10 04:36:42;;;;;;;2.55;0.90;;;19.80;93.60;;;;;;5073805;28;20372;-83
2021/05/10 04:39:10;;;;;;;3.22;1.00;;;19.80;93.60;;;;;;5092718;28;20506;-84
2021/05/10 04:41:36;;;;;;;3.67;1.00;;;19.80;93.30;;;;;;5073352;28;20032;-84
2021/05/10 04:44:03;;;;;;;4.15;1.00;;;19.90;93.30;;;;;;5081060;28;20472;-83
2021/05/10 04:46:30;;;;;;;3.75;1.20;;;19.90;92.60;;;;;;5075190;28;20046;-85
2021/05/10 04:48:56;;;;;;;2.22;0.85;;;20.00;92.90;;;;;;5090795;28;20479;-84
2021/05/10 04:51:22;;;;;;;3.55;1.17;;;20.00;92.60;;;;;;5096555;28;20547;-84
2021/05/10 04:53:48;;;;;;;6.65;1.60;;;20.00;91.90;;;;;;5103890;28;20040;-84
2021/05/10 04:56:16;;;;;;;2.92;1.30;;;20.10;92.00;;;;;;5073866;28;20396;-83
2021/05/10 04:58:45;;;;;;;3.92;0.90;;;20.20;91.90;;;;;;5081283;28;20064;-81
2021/05/10 05:01:14;;;;;;;4.15;1.25;;;20.10;92.30;;;;;;5079541;28;20127;-82
2021/05/10 05:03:41;;;;;;;6.38;1.10;;;20.00;92.70;;;;;;5086993;28;20034;-85
2021/05/10 05:06:07;;;;;;;5.10;1.50;;;19.90;93.30;;;;;;5101544;28;20040;-84
2021/05/10 05:08:35;;;;;;;7.13;1.15;;;19.80;93.10;;;;;;5091729;28;20032;-84
2021/05/10 05:11:02;;;;;;;2.88;1.00;;;19.80;93.50;;;;;;5090685;28;20054;-84
2021/05/10 05:13:30;;;;;;;7.80;1.10;;;19.80;93.30;;;;;;5078189;28;20050;-84
2021/05/10 05:15:56;;;;;;;5.90;1.20;;;19.80;93.50;;;;;;5084834;28;20379;-85
2021/05/10 05:18:22;;;;;;;6.88;1.27;;;19.80;93.80;;;;;;5073623;28;20127;-86
2021/05/10 05:20:49;;;;;;;3.20;1.50;;;19.80;93.50;;;;;;5103542;28;20043;-83
2021/05/10 05:23:29;;;;;;;4.95;1.60;;;19.80;94.00;;;;;;5077251;28;20031;-84
2021/05/10 05:26:01;;;;;;;9.35;1.70;;;19.80;94.00;;;;;;5084388;28;20122;-86
2021/05/10 05:28:28;;;;;;;3.63;1.20;;;19.80;94.10;;;;;;5105033;28;20035;-84
2021/05/10 05:30:59;;;;;;;5.50;1.40;;;19.80;94.30;;;;;;5077117;28;20050;-85
2021/05/10 05:33:27;;;;;;;4.68;1.52;;;19.80;94.10;;;;;;5094249;28;20535;-88
2021/05/10 05:35:57;;;;;;;4.90;1.50;;;19.70;94.60;;;;;;5091362;28;20060;-86
2021/05/10 05:38:23;;;;;;;5.88;1.50;;;19.70;95.10;;;;;;5095610;28;20032;-83
2021/05/10 05:40:50;;;;;;;7.32;1.20;;;19.60;95.40;;;;;;5095308;28;20046;-85
2021/05/10 05:43:16;;;;;;;5.85;1.10;;;19.50;95.40;;;;;;5095794;28;20019;-85
2021/05/10 05:45:43;;;;;;;6.35;1.17;;;19.40;95.70;;;;;;5095127;28;20031;-86
2021/05/10 05:48:11;;;;;;;3.55;0.80;;;19.40;95.90;;;;;;5095769;28;20047;-84
2021/05/10 05:50:41;;;;;;;6.05;1.13;;;19.30;96.30;;;;;;5095604;28;20043;-83
2021/05/10 05:53:07;;;;;;;4.75;1.10;;;19.30;96.40;;;;;;5095365;28;20043;-85
2021/05/10 05:55:34;;;;;;;4.78;1.23;;;19.20;96.60;;;;;;5095386;28;20027;-84
2021/05/10 05:58:03;;;;;;;2.28;1.00;;;19.20;96.80;;;;;;5113009;28;20036;-85
2021/05/10 06:00:29;;;;;;;1.98;0.90;;;19.10;97.20;;;;;;5095535;28;20051;-86
2021/05/10 06:02:55;;;;;;;4.72;1.20;;;18.90;97.50;;;;;;5095593;28;20031;-86
2021/05/10 06:05:21;;;;;;;2.75;1.10;;;18.90;98.00;;;;;;5100302;28;20028;-85
2021/05/10 06:07:48;;;;;;;2.67;0.90;;;18.80;97.90;;;;;;5095643;28;20027;-84
2021/05/10 06:10:20;;;;;;;4.45;1.00;;;18.90;97.90;;;;;;5079295;28;20031;-85
2021/05/10 06:12:51;;;;;;;1.95;0.80;;;18.90;97.40;;;;;;5095721;28;20032;-84
2021/05/10 06:15:22;;;;;;;3.47;0.98;;;18.90;97.60;;;;;;5095521;28;20039;-85
2021/05/10 06:17:49;;;;;;;4.10;1.05;;;18.90;97.40;;;;;;5093649;28;20138;-84
2021/05/10 06:20:17;;;;;;;5.53;1.00;;;18.80;97.70;;;;;;5106355;28;20378;-84
2021/05/10 06:22:48;;;;;;;1.70;0.88;;;18.80;97.50;;;;;;5113922;28;20031;-85
2021/05/10 06:25:17;;;;;;;6.45;0.60;;;18.90;97.30;;;;;;5113598;28;20039;-85
2021/05/10 06:27:44;;;;;;;1.83;0.50;;;18.90;96.90;;;;;;5094916;28;20479;-83
2021/05/10 06:30:12;;;;;;;1.85;0.50;;;18.90;96.90;;;;;;5094834;28;20072;-85
2021/05/10 06:32:43;;;;;;;0.52;0.30;;;18.80;96.80;;;;;;5096045;28;20127;-85
2021/05/10 06:35:10;;;;;;;2.38;0.47;;;18.70;96.90;;;;;;5108848;28;20122;-84
2021/05/10 06:37:39;;;;;;;2.40;0.30;;;18.70;97.00;;;;;;5116233;28;20054;-87
2021/05/10 06:40:09;;;;;;;1.25;0.20;;;18.60;96.90;;;;;;5106832;28;20100;-85
2021/05/10 06:42:36;;;;;;;0.20;0.20;;;18.60;97.00;;;;;;5115256;28;20360;-86
2021/05/10 06:45:06;;;;;;;0.90;0.40;;;18.60;97.40;;;;;;5099959;28;20063;-86
2021/05/10 06:47:34;;;;;;;0.65;0.20;;;18.70;97.40;;;;;;5100743;28;20085;-86
2021/05/10 06:50:00;;;;;;;2.70;0.77;;;18.80;97.50;;;;;;5095648;28;20066;-87
2021/05/10 06:52:27;;;;;;;4.75;0.47;;;18.90;97.50;;;;;;5099670;28;20038;-87
2021/05/10 06:54:54;;;;;;;0.95;0.40;;;18.90;96.90;;;;;;5099965;28;20042;-86
2021/05/10 06:57:21;;;;;;;1.10;0.40;;;19.00;96.80;;;;;;5099380;28;20040;-85
2021/05/10 06:59:47;;;;;;;1.00;0.40;;;19.10;96.70;;;;;;5112500;28;20094;-85
2021/05/10 07:02:15;;;;;;;3.58;0.40;;;19.00;96.50;;;;;;5097280;28;20032;-84
2021/05/10 07:04:42;;;;;;;1.13;0.57;;;19.10;96.50;;;;;;5087636;28;20035;-85
2021/05/10 07:07:08;;;;;;;0.50;0.40;;;19.10;96.80;;;;;;5082467;28;20042;-85
2021/05/10 07:09:35;;;;;;;1.77;0.47;;;19.10;97.10;;;;;;5096378;28;20399;-84
2021/05/10 07:12:02;;;;;;;2.10;0.70;;;19.10;97.30;;;;;;5078062;28;20043;-85
2021/05/10 07:14:28;;;;;;;0.95;0.50;;;19.20;97.30;;;;;;5096693;28;20111;-86
2021/05/10 07:16:55;;;;;;;2.05;0.40;;;19.20;97.30;;;;;;5077867;28;20504;-85
2021/05/10 07:19:27;;;;;;;1.65;0.40;;;19.20;97.50;;;;;;5096328;28;20081;-83
2021/05/10 07:22:00;;;;;;;1.20;0.50;;;19.20;97.40;;;;;;5075829;28;20036;-86
2021/05/10 07:24:27;;;;;;;1.08;0.50;;;19.10;97.30;;;;;;5076341;28;20040;-85
2021/05/10 07:26:57;;;;;;;1.67;0.55;;;19.20;97.50;;;;;;5094735;28;20044;-85
2021/05/10 07:29:24;;;;;;;3.63;0.75;;;19.30;97.00;;;;;;5076296;28;20067;-87
2021/05/10 07:31:50;;;;;;;5.32;0.90;;;19.20;96.10;;;;;;5081567;28;20047;-85
2021/05/10 07:34:17;;;;;;;1.42;0.80;;;19.20;96.70;;;;;;5087629;28;20036;-87
2021/05/10 07:36:47;;;;;;;1.67;0.90;;;19.30;96.50;;;;;;5086621;28;20097;-85
2021/05/10 07:39:14;;;;;;;2.17;0.70;;;19.40;96.40;;;;;;5059746;28;20138;-89
2021/05/10 07:41:45;;;;;;;1.67;0.85;;;19.60;96.70;;;;;;5086387;28;20032;-86
2021/05/10 07:44:10;;;;;;;3.17;0.90;;;19.70;96.50;;;;;;5087483;28;20043;-86
2021/05/10 07:46:44;;;;;;;1.58;0.90;;;19.70;96.00;;;;;;5095982;28;20475;-87
2021/05/10 07:49:11;;;;;;;1.50;0.73;;;19.60;96.20;;;;;;5113100;28;20133;-85
2021/05/10 07:51:39;;;;;;;1.58;0.70;;;19.60;96.60;;;;;;5077733;28;20044;-85
2021/05/10 07:54:06;;;;;;;3.15;1.20;;;19.50;96.80;;;;;;5074789;28;20024;-86
2021/05/10 07:56:33;;;;;;;3.55;1.08;;;19.50;96.10;;;;;;5080772;28;20040;-85
2021/05/10 07:59:01;;;;;;;3.35;1.20;;;19.40;96.40;;;;;;5115985;28;20098;-86
2021/05/10 08:01:28;;;;;;;6.05;1.10;;;19.20;96.50;;;;;;5097235;28;20110;-85
2021/05/10 08:03:55;;;;;;;1.92;1.02;;;19.20;96.70;;;;;;5094654;28;20071;-84
2021/05/10 08:06:22;;;;;;;2.25;1.00;;;19.10;96.90;;;;;;5076937;28;20069;-86
2021/05/10 08:08:48;;;;;;;1.75;0.85;;;19.10;97.10;;;;;;5080715;28;20501;-84
2021/05/10 08:11:18;;;;;;;1.70;1.00;;;19.00;97.10;;;;;;5082323;28;20039;-84
2021/05/10 08:13:44;;;;;;;2.70;1.00;;;18.90;97.30;;;;;;5077171;28;20035;-85
2021/05/10 08:16:13;;;;;;;3.28;1.00;;;18.80;97.60;;;;;;5101761;28;20059;-85
2021/05/10 08:18:42;;;;;;;4.18;1.10;;;18.70;97.70;;;;;;5077813;28;20115;-86
2021/05/10 08:21:10;;;;;;;3.92;1.13;;;18.70;97.70;;;;;;5087730;28;20035;-84
2021/05/10 08:23:38;;;;;;;2.15;1.00;;;18.70;98.00;;;;;;5113373;28;20035;-83
2021/05/10 08:26:03;;;;;;;2.13;0.88;;;18.80;98.00;;;;;;5093834;28;20388;-82
2021/05/10 08:28:32;;;;;;;3.00;1.00;;;18.90;98.00;;;;;;5084888;28;20031;-84
2021/05/10 08:31:01;;;;;;;2.25;1.00;;;19.10;97.90;;;;;;5092610;28;20036;-84
2021/05/10 08:33:30;;;;;;;2.28;1.17;;;19.10;97.70;;;;;;5074810;28;20040;-85
2021/05/10 08:35:57;;;;;;;2.45;1.17;;;19.00;97.70;;;;;;5093572;28;20119;-87
2021/05/10 08:38:24;;;;;;;2.80;1.17;;;18.80;98.60;;;;;;5095078;28;20031;-84
2021/05/10 08:40:53;;;;;;;3.47;1.10;;;18.00;99.90;;;;;;5064386;28;20092;-86
2021/05/10 08:43:26;;;;;;;2.15;1.10;;;17.20;99.90;;;;;;5093618;28;20081;-86
2021/05/10 08:45:57;;;;;;;;;;;16.80;99.90;;;;;;5112732;28;20042;-84
2021/05/10 08:48:25;;;;;;;2.28;1.35;;;16.50;99.90;;;;;;5093802;28;19931;-85
2021/05/10 08:50:53;;;;;;;4.63;1.45;;;16.50;99.90;;;;;;5068291;28;20055;-83
2021/05/10 08:53:38;;;;;;;3.03;1.80;;;16.50;99.90;;;;;;5074094;28;20048;-83
2021/05/10 08:56:05;;;;;;;5.40;1.40;;;16.60;99.90;;;;;;5074366;28;20631;-82
2021/05/10 08:58:43;;;;;;;2.33;1.40;;;16.70;99.90;;;;;;5073338;28;20080;-83
2021/05/10 09:01:19;;;;;;;3.25;1.52;;;16.70;99.90;;;;;;5083302;28;20483;-85
2021/05/10 09:03:49;;;;;;;1.90;1.30;;;16.70;99.90;;;;;;5092588;28;20127;-84
2021/05/10 09:06:31;;;;;;;3.40;1.40;;;16.70;99.90;;;;;;5106928;28;20067;-84
2021/05/10 09:09:08;;;;;;;2.45;1.42;;;16.80;99.90;;;;;;5078521;28;20031;-83
2021/05/10 09:11:36;;;;;;;3.13;1.33;;;16.90;99.90;;;;;;5111783;28;20043;-85
2021/05/10 09:14:03;;;;;;;2.75;1.60;;;17.00;99.90;;;;;;5094789;28;20051;-85
2021/05/10 09:16:34;;;;;;;2.85;1.63;;;17.10;99.90;;;;;;5093828;28;20044;-84
2021/05/10 09:19:04;;;;;;;2.70;1.38;;;17.20;99.90;;;;;;5093865;28;20031;-88
2021/05/10 09:21:36;;;;;;;3.67;1.30;;;17.30;99.90;;;;;;5083063;28;20388;-84
2021/05/10 09:24:24;;;;;;;2.72;1.70;;;17.30;99.90;;;;;;5074209;28;20035;-86
2021/05/10 09:26:51;;;;;;;2.08;1.38;;;17.40;99.90;;;;;;5074490;28;20097;-84
2021/05/10 09:29:28;;;;;;;2.40;1.38;;;17.30;99.90;;;;;;5089410;28;20035;-84
2021/05/10 09:31:55;;;;;;;2.95;1.40;;;17.50;99.90;;;;;;5080140;28;20465;-85
2021/05/10 09:34:25;;;;;;;3.72;1.30;;;17.50;99.90;;;;;;5080501;28;20024;-85
2021/05/10 09:37:04;;;;;;;2.42;1.35;;;17.50;99.90;;;;;;5096315;28;20365;-84
2021/05/10 09:39:36;;;;;;;1.50;1.20;;;17.70;99.90;;;;;;5113872;28;20467;-85
2021/05/10 09:42:06;;;;;;;2.95;1.30;;;17.70;99.90;;;;;;5096700;28;20062;-86
2021/05/10 09:44:43;;;;;;;2.78;1.50;;;17.80;99.90;;;;;;5093383;28;20119;-85
2021/05/10 09:47:10;;;;;;;1.88;1.20;;;17.90;99.90;;;;;;5075188;28;20032;-86
2021/05/10 09:49:47;;;;;;;5.22;1.30;;;18.00;99.90;;;;;;5080951;28;20048;-85
2021/05/10 09:52:19;;;;;;;4.28;1.88;;;18.10;99.90;;;;;;5091998;28;20043;-85
2021/05/10 09:54:59;;;;;;;2.35;1.40;;;18.10;99.90;;;;;;5093045;28;20032;-85
2021/05/10 09:57:28;;;;;;;2.47;1.50;;;18.00;99.90;;;;;;5092727;28;20064;-86
2021/05/10 10:00:15;;;;;;;2.78;1.40;;;18.10;99.90;;;;;;5099260;28;20039;-85
2021/05/10 10:02:41;;;;;;;2.60;1.23;;;18.10;99.90;;;;;;5094428;28;20356;-85
2021/05/10 10:05:10;;;;;;;1.75;1.20;;;18.10;99.90;;;;;;5071291;28;20032;-85
2021/05/10 10:07:40;;;;;;;4.38;1.60;;;18.20;99.90;;;;;;5110100;28;20035;-85
2021/05/10 10:10:16;;;;;;;2.13;1.15;;;18.20;99.90;;;;;;5093812;28;20032;-85
2021/05/10 10:12:44;;;;;;;2.38;1.30;;;18.30;99.90;;;;;;5089502;28;20036;-84
2021/05/10 10:15:12;;;;;;;3.03;1.35;;;18.30;99.90;;;;;;5091140;28;20101;-85
2021/05/10 10:17:39;;;;;;;2.58;1.38;;;18.40;99.90;;;;;;5091048;28;20075;-85
2021/05/10 10:20:08;;;;;;;3.47;1.80;;;18.50;99.90;;;;;;5077589;28;20086;-85
2021/05/10 10:22:36;;;;;;;1.92;1.27;;;18.40;99.90;;;;;;5113674;28;20043;-85
2021/05/10 10:25:05;;;;;;;3.20;1.70;;;18.40;99.90;;;;;;5115992;28;20028;-86
2021/05/10 10:27:36;;;;;;;4.45;1.77;;;18.40;99.90;;;;;;5100026;27;20042;-86
2021/05/10 10:30:06;;;;;;;3.55;1.60;;;18.30;99.90;;;;;;5072194;28;20028;-88
2021/05/10 10:32:33;;;;;;;3.35;1.85;;;18.20;99.90;;;;;;5100293;28;20032;-86
2021/05/10 10:35:02;;;;;;;4.15;1.80;;;18.00;99.90;;;;;;5096652;28;20035;-85
2021/05/10 10:37:31;;;;;;;3.30;2.15;;;17.70;99.90;;;;;;5098540;28;20047;-86
2021/05/10 10:40:03;;;;;;;3.40;1.98;;;17.50;99.90;;;;;;5097182;28;20047;-87
2021/05/10 10:42:31;;;;;;;2.67;2.10;;;17.30;99.90;;;;;;5091360;28;20043;-86
2021/05/10 10:45:10;;;;;;;2.72;1.80;;;17.40;99.90;;;;;;5096629;28;20035;-85
2021/05/10 10:48:01;;;;;;;2.25;1.58;;;17.40;99.90;;;;;;5097519;28;20040;-86
2021/05/10 10:50:57;;;;;;;4.15;2.67;;;17.40;99.90;;;;;;5098856;28;20087;-86
2021/05/10 10:53:44;;;;;;;4.25;2.28;;;17.40;99.90;;;;;;5104804;28;20073;-85
2021/05/10 10:56:11;;;;;;;4.90;1.95;;;17.30;99.90;;;;;;5105515;28;20028;-85
2021/05/10 10:58:44;;;;;;;2.58;1.95;;;17.30;99.90;;;;;;5101079;28;20042;-86
2021/05/10 11:01:20;;;;;;;;;;;17.40;99.90;;;;;;5106373;28;20043;-86
2021/05/10 11:03:48;;;;;;;4.93;2.70;;;17.40;99.90;;;;;;5105375;28;19967;-85
2021/05/10 11:06:16;;;;;;;2.85;2.20;;;17.40;99.90;;;;;;5095083;28;20032;-86
2021/05/10 11:08:55;;;;;;;4.20;2.83;;;17.30;99.90;;;;;;5103636;28;20090;-87
2021/05/10 11:11:30;;;;;;;3.97;2.50;;;17.40;99.90;;;;;;5101266;28;20093;-85
2021/05/10 11:13:59;;;;;;;3.33;2.90;;;17.60;99.90;;;;;;5088273;28;20036;-85
2021/05/10 11:16:48;;;;;;;4.65;2.47;;;17.60;99.90;;;;;;5105415;28;20058;-86
2021/05/10 11:19:35;;;;;;;3.47;2.53;;;17.50;99.90;;;;;;5086355;28;20032;-86
2021/05/10 11:22:49;;;;;;;3.72;2.70;;;17.30;99.90;;;;;;5089086;28;20078;-87
2021/05/10 11:25:39;;;;;;;3.20;2.70;;;17.00;99.90;;;;;;5101420;28;20047;-85
2021/05/10 11:28:31;;;;;;;6.85;3.33;;;16.70;99.90;;;;;;5091238;28;20032;-85
2021/05/10 11:30:59;;;;;;;7.78;3.33;;;16.60;99.90;;;;;;5119067;28;20051;-84
2021/05/10 11:33:56;;;;;;;4.60;3.03;;;16.50;99.90;;;;;;5094757;28;20044;-87
2021/05/10 11:36:27;;;;;;;5.20;4.13;;;16.40;99.90;;;;;;5104540;28;20090;-86
2021/05/10 11:38:59;;;;;;;5.78;4.38;;;16.20;99.90;;;;;;5086270;28;20056;-87
2021/05/10 11:41:39;;;;;;;5.57;4.87;;;16.00;99.90;;;;;;5088536;28;20093;-87
2021/05/10 11:44:07;;;;;;;5.05;4.43;;;15.80;99.90;;;;;;5083940;28;20032;-86
2021/05/10 11:46:50;;;;;;;4.40;3.08;;;15.50;99.90;;;;;;5077483;28;20752;-85
2021/05/10 11:49:28;;;;;;;3.22;2.35;;;15.40;99.90;;;;;;5076731;28;20039;-86
2021/05/10 11:51:58;;;;;;;2.90;2.17;;;15.50;99.90;;;;;;5104640;27;20047;-86
2021/05/10 11:54:27;;;;;;;4.20;2.35;;;15.70;99.90;;;;;;5124372;27;20362;-86
2021/05/10 11:56:55;;;;;;;3.00;2.17;;;15.80;99.90;;;;;;5105706;27;20069;-86
2021/05/10 12:02:18;;;;;;;4.90;2.40;;;16.10;99.90;;;;;;5124486;27;20043;-86
2021/05/10 12:04:50;;;;;;;2.80;2.28;;;16.30;99.90;;;;;;5100978;28;20031;-86
2021/05/10 12:07:26;;;;;;;2.55;2.15;;;16.60;99.90;;;;;;5111656;28;20490;-87
2021/05/10 12:10:06;;;;;;;3.85;2.60;;;17.00;99.90;;;;;;5080461;28;20047;-87
2021/05/10 12:12:52;;;;;;;3.47;2.30;;;17.70;99.90;;;;;;5110473;27;20079;-88
2021/05/10 12:15:26;;;;;;;3.45;2.30;;;18.30;99.90;;;;;;5095696;27;20035;-87
2021/05/10 12:17:55;;;;;;;2.88;2.13;;;18.70;99.90;;;;;;5078828;28;20039;-86
2021/05/10 12:20:31;;;;;;;3.67;2.30;;;19.20;99.90;;;;;;5110062;28;20585;-86
2021/05/10 12:23:21;;;;;;;5.60;2.63;;;19.80;99.90;;;;;;5113550;27;20046;-88
2021/05/10 12:25:47;;;;;;;2.50;1.90;;;20.80;99.90;;;;;;5091292;28;20028;-87
2021/05/10 12:28:23;;;;;;;2.20;1.42;;;21.60;99.90;;;;;;5084072;27;20115;-87
2021/05/10 12:30:50;;;;;;;4.22;2.58;;;22.50;99.90;;;;;;5097071;28;20040;-87
2021/05/10 12:33:24;;;;;;;2.45;2.00;;;23.10;99.50;;;;;;5097770;28;20115;-87
2021/05/10 12:36:02;;;;;;;2.90;1.70;;;23.50;98.90;;;;;;5090025;28;20031;-87
2021/05/10 12:38:46;;;;;;;3.00;1.80;;;23.50;98.80;;;;;;5120698;27;20096;-86
2021/05/10 12:41:29;;;;;;;2.15;1.65;;;23.40;98.20;;;;;;5089630;27;20032;-87
2021/05/10 12:43:58;;;;;;;2.65;1.80;;;23.00;97.70;;;;;;5123358;27;20031;-86
2021/05/10 12:46:28;;;;;;;2.25;1.70;;;22.50;98.30;;;;;;5117833;27;20476;-86
2021/05/10 12:48:59;;;;;;;3.35;1.80;;;22.00;98.80;;;;;;5091983;28;20043;-87
2021/05/10 12:51:31;;;;;;;3.20;1.30;;;21.50;99.10;;;;;;5092854;28;20063;-88
2021/05/10 12:54:05;;;;;;;1.92;1.23;;;21.40;99.50;;;;;;5078883;28;20044;-89
2021/05/10 12:56:46;;;;;;;2.58;1.63;;;22.30;99.30;;;;;;5079993;28;20066;-89
2021/05/10 12:59:15;;;;;;;1.77;1.33;;;22.90;98.20;;;;;;5072741;28;20082;-90
2021/05/10 13:01:41;;;;;;;2.88;1.90;;;22.90;98.30;;;;;;5070892;28;20067;-88
2021/05/10 13:04:10;;;;;;;2.20;1.60;;;22.60;97.70;;;;;;5081430;28;20341;-88
2021/05/10 13:06:44;;;;;;;2.55;1.83;;;22.20;98.00;;;;;;5082479;28;20094;-89
2021/05/10 13:09:24;;;;;;;2.70;1.77;;;21.80;98.40;;;;;;5090365;28;20239;-89
2021/05/10 13:12:01;;;;;;;3.45;1.92;;;21.40;98.60;;;;;;5058208;28;20063;-89
2021/05/10 13:17:41;;;;;;;3.45;2.35;;;20.60;99.50;;;;;;5090027;28;20119;-89